»·PEaware :: AWE7822 KPHX-KLAS

AWE7822 :: KPHX-KLAS

FLIGHT INFORMATION

Flight Status: Arrived
Operator:
US Airways
More flights by this operator :: More flights under this callsign
Pilot: Ruben R. (12247)
Aircraft: AIRBUS A320
(A320)
More flights by this aircraft type
Origin: KPHX Phoenix Sky Harbor Intl
United States
Destination: KLAS McCarran Intl
United States
More flights between these airports :: More routes between these airports
Route: +ZEPER1 SISIE IGM TYSSN5
File this flight plan on PilotEdge
Remarks:
Altitude:
(Current/Filed)
28,000ft
Speed:
(Current/Filed)
450kts
Departed: 25-May-19 07:22 PM
Arrived: 25-May-19 08:06 PM
Distance/Time
Traveled:
222nm/0:43
Distance/Time
To Go:
Arrived

Flight Plot

Page will automatically refresh every two minutes.

Flight plan parsing failed; only flown route is shown


Map Options




Map Legend


Flown Route
Filed Route
Departure Airport
Arrival Airport
Navaid (VOR, NDB)
Fix

Horizontal Profiles

Position Reports

Time Latitude Longitude Heading Altitude Ground
Speed
25-May-19 18:45 33.438273 -112.008430 236 1149ft 0kts
25-May-19 18:46 33.438273 -112.008430 236 1149ft 0kts
25-May-19 18:47 33.438273 -112.008430 236 1149ft 0kts
25-May-19 18:48 33.438273 -112.008430 236 1149ft 0kts
25-May-19 18:49 33.438273 -112.008430 236 1149ft 0kts
25-May-19 18:50 33.438273 -112.008430 236 1149ft 0kts
25-May-19 18:51 33.438273 -112.008430 236 1149ft 0kts
25-May-19 18:52 33.438273 -112.008430 236 1149ft 0kts
25-May-19 18:53 33.438273 -112.008430 236 1149ft 0kts
25-May-19 18:54 33.438273 -112.008430 236 1149ft 0kts
25-May-19 18:55 33.438273 -112.008430 236 1149ft 0kts
25-May-19 18:56 33.438273 -112.008430 236 1149ft 0kts
25-May-19 18:57 33.438273 -112.008430 236 1149ft 0kts
25-May-19 18:58 33.438273 -112.008430 236 1149ft 0kts
25-May-19 18:59 33.438273 -112.008430 236 1149ft 0kts
25-May-19 19:00 33.438273 -112.008430 236 1149ft 0kts
25-May-19 19:01 33.438273 -112.008430 236 1149ft 0kts
25-May-19 19:02 33.438273 -112.008430 236 1149ft 0kts
25-May-19 19:03 33.438273 -112.008430 236 1149ft 0kts
25-May-19 19:05 33.438273 -112.008430 236 1149ft 0kts
25-May-19 19:06 33.438495 -112.007909 251 1149ft 2kts
25-May-19 19:07 33.438820 -112.007411 180 1149ft 2kts
25-May-19 19:08 33.438850 -112.007411 180 1149ft 0kts
25-May-19 19:09 33.438850 -112.007411 180 1149ft 0kts
25-May-19 19:10 33.438850 -112.007411 180 1149ft 0kts
25-May-19 19:11 33.438849 -112.007411 180 1149ft 0kts
25-May-19 19:12 33.438848 -112.007411 180 1149ft 0kts
25-May-19 19:13 33.438714 -112.007386 147 1149ft 3kts
25-May-19 19:14 33.438981 -112.004670 89 1149ft 8kts
25-May-19 19:15 33.439012 -111.999837 91 1149ft 20kts
25-May-19 19:16 33.439000 -111.995180 89 1149ft 14kts
25-May-19 19:17 33.439782 -111.991162 38 1149ft 0kts
25-May-19 19:18 33.439794 -111.991151 38 1149ft 0kts
25-May-19 19:19 33.439795 -111.991150 38 1149ft 0kts
25-May-19 19:20 33.439796 -111.991150 38 1149ft 0kts
25-May-19 19:20 33.439896 -111.991073 26 1149ft 3kts
25-May-19 19:22 33.440820 -111.998838 271 1149ft 115kts
25-May-19 19:23 33.440758 -112.053356 269 3468ft 186kts
25-May-19 19:23 33.442600 -112.112532 268 4958ft 240kts
25-May-19 19:25 33.471503 -112.198622 342 8673ft 278kts
25-May-19 19:26 33.551472 -112.196617 354 11598ft 313kts
25-May-19 19:26 33.631230 -112.206638 347 12937ft 371kts
25-May-19 19:28 33.737812 -112.240771 341 14400ft 423kts
25-May-19 19:28 33.834278 -112.271710 341 16195ft 438kts
25-May-19 19:29 33.954057 -112.310623 340 18231ft 454kts
25-May-19 19:30 34.068320 -112.372831 314 20182ft 450kts
25-May-19 19:31 34.164073 -112.472546 314 21938ft 462kts
25-May-19 19:32 34.264330 -112.572513 313 23533ft 472kts
25-May-19 19:33 34.366232 -112.675943 314 25004ft 482kts
25-May-19 19:34 34.469303 -112.780519 313 26783ft 480kts
25-May-19 19:35 34.570793 -112.884237 311 27985ft 477kts
25-May-19 19:36 34.669711 -112.992215 310 27970ft 478kts
25-May-19 19:37 34.768462 -113.100139 310 27986ft 477kts
25-May-19 19:38 34.867175 -113.208602 309 27932ft 479kts
25-May-19 19:39 34.965951 -113.317680 308 27887ft 480kts
25-May-19 19:40 35.036822 -113.449164 289 27929ft 460kts
25-May-19 19:41 35.099955 -113.585932 291 27947ft 462kts
25-May-19 19:42 35.162964 -113.722431 290 27940ft 461kts
25-May-19 19:43 35.225751 -113.858263 291 27386ft 449kts
25-May-19 19:44 35.305521 -113.977963 317 24348ft 479kts
25-May-19 19:45 35.412766 -114.074826 317 22453ft 471kts
25-May-19 19:46 35.516693 -114.172852 319 18421ft 459kts
25-May-19 19:47 35.608754 -114.258142 318 16950ft 378kts
25-May-19 19:48 35.686262 -114.330825 318 15488ft 333kts
25-May-19 19:49 35.762883 -114.394512 335 13465ft 331kts
25-May-19 19:50 35.848864 -114.433051 338 11906ft 325kts
25-May-19 19:51 35.930389 -114.471426 337 11096ft 294kts
25-May-19 19:52 36.002673 -114.505316 337 10516ft 268kts
25-May-19 19:53 36.045782 -114.564962 272 9803ft 224kts
25-May-19 19:54 36.056582 -114.630866 275 9391ft 167kts
25-May-19 19:55 36.065849 -114.685009 275 8223ft 167kts
25-May-19 19:56 36.075666 -114.741132 276 7928ft 157kts
25-May-19 19:57 36.085199 -114.795812 276 6912ft 158kts
25-May-19 19:58 36.093778 -114.846511 276 5589ft 147kts
25-May-19 19:59 36.093057 -114.895728 257 5049ft 142kts
25-May-19 20:00 36.086872 -114.944080 255 4355ft 139kts
25-May-19 20:01 36.079518 -114.990774 257 3476ft 137kts
25-May-19 20:02 36.073796 -115.037834 265 3589ft 139kts
25-May-19 20:03 36.073758 -115.085509 265 2912ft 137kts
25-May-19 20:04 36.073643 -115.132376 266 2208ft 135kts
25-May-19 20:05 36.074443 -115.149973 300 2195ft 0kts
25-May-19 20:06 36.075092 -115.151221 325 2195ft 0kts
25-May-19 20:07 36.075092 -115.151221 325 2195ft 0kts
25-May-19 20:08 36.075093 -115.151222 325 2195ft 0kts
25-May-19 20:09 36.075094 -115.151222 325 2195ft 0kts
25-May-19 20:10 36.075095 -115.151223 325 2195ft 0kts
25-May-19 20:11 36.075095 -115.151224 325 2195ft 0kts
25-May-19 20:12 36.078033 -115.151983 63 2195ft 15kts
25-May-19 20:13 36.078523 -115.146989 59 2195ft 1kts
25-May-19 20:14 36.079535 -115.146738 25 2195ft 0kts
25-May-19 20:15 36.079547 -115.146731 25 2195ft 0kts
25-May-19 20:16 36.079547 -115.146731 25 2195ft 0kts

Navigation Log

Ident Type
Flight plan parsing failed, navigation log unavailable